Time;durP1;ratioP1;P1;durP2;ratioP2;P2;SDS_P1;SDS_P2;PMS_P1;PMS_P2;Temp;Humidity;BMP_temperature;BMP_pressure;BME280_temperature;BME280_humidity;BME280_pressure;Samples;Min_cycle;Max_cycle;Signal;HPM_P1;HPM_P2
2021/06/26 00:00:55;;;;;;;;;8.50;6.50;;;;;20.84;61.49;101265.44;5074852;28;47180;-78
2021/06/26 00:03:26;;;;;;;;;6.75;6.00;;;;;20.84;61.72;101267.28;5074303;28;45671;-78
2021/06/26 00:05:53;;;;;;;;;8.00;4.75;;;;;20.85;61.36;101266.25;5075919;28;45460;-78
2021/06/26 00:08:19;;;;;;;;;3.75;3.75;;;;;20.87;61.63;101278.53;5063398;28;45454;-78
2021/06/26 00:10:45;;;;;;;;;8.00;7.50;;;;;20.86;61.87;101268.78;5068989;28;46923;-77
2021/06/26 00:13:12;;;;;;;;;5.00;5.00;;;;;20.88;61.70;101276.69;5081617;28;45722;-78
2021/06/26 00:15:37;;;;;;;;;9.75;6.00;;;;;20.87;61.70;101273.16;5076457;28;45325;-78
2021/06/26 00:18:03;;;;;;;;;8.50;6.00;;;;;20.85;61.49;101271.63;5075509;28;45574;-77
2021/06/26 00:20:29;;;;;;;;;11.50;6.75;;;;;20.87;61.27;101273.16;5073392;28;47084;-78
2021/06/26 00:22:55;;;;;;;;;5.25;5.25;;;;;20.87;61.87;101278.53;5067660;28;45447;-77
2021/06/26 00:25:22;;;;;;;;;9.00;7.00;;;;;20.87;61.06;101270.47;5067884;28;45394;-78
2021/06/26 00:27:48;;;;;;;;;6.75;5.00;;;;;20.86;61.48;101271.47;5071846;28;45538;-78
2021/06/26 00:30:14;;;;;;;;;4.75;4.75;;;;;20.84;61.42;101270.81;5072969;28;47025;-78
2021/06/26 00:32:40;;;;;;;;;6.75;5.75;;;;;20.83;61.43;101271.78;5061580;28;45429;-77
2021/06/26 00:35:05;;;;;;;;;6.50;5.25;;;;;20.81;61.51;101271.09;5077592;28;45340;-78
2021/06/26 00:37:31;;;;;;;;;8.00;5.75;;;;;20.80;61.11;101269.41;5070445;28;45719;-78
2021/06/26 00:39:56;;;;;;;;;6.50;6.50;;;;;20.79;61.30;101275.78;5076520;28;45380;-78
2021/06/26 00:42:22;;;;;;;;;12.25;8.00;;;;;20.76;61.65;101272.59;5064987;28;45436;-77
2021/06/26 00:44:47;;;;;;;;;7.50;7.50;;;;;20.74;61.65;101278.09;5075038;28;45600;-78
2021/06/26 00:47:12;;;;;;;;;8.25;8.00;;;;;20.72;62.50;101269.34;5075471;27;45365;-78
2021/06/26 00:49:40;;;;;;;;;11.00;9.25;;;;;20.72;62.76;101273.88;5073877;28;45320;-77
2021/06/26 00:52:06;;;;;;;;;11.25;10.25;;;;;20.63;64.52;101262.25;5070064;28;45326;-78
2021/06/26 00:54:32;;;;;;;;;13.00;12.50;;;;;20.55;64.54;101262.19;5075323;28;45392;-77
2021/06/26 00:56:58;;;;;;;;;14.00;11.50;;;;;20.44;65.63;101254.38;5078804;28;45373;-77
2021/06/26 00:59:24;;;;;;;;;12.75;10.75;;;;;20.31;66.29;101251.19;5072816;28;46220;-78
2021/06/26 01:01:49;;;;;;;;;13.00;11.50;;;;;20.25;66.02;101241.94;5070225;28;45476;-77
2021/06/26 01:04:15;;;;;;;;;13.25;13.00;;;;;20.22;66.78;101249.44;5070976;28;45358;-78
2021/06/26 01:06:40;;;;;;;;;13.00;10.00;;;;;20.22;66.94;101241.38;5066742;28;46276;-77
2021/06/26 01:09:06;;;;;;;;;10.25;9.75;;;;;20.21;67.05;101242.41;5075038;28;45533;-77
2021/06/26 01:11:31;;;;;;;;;13.25;11.75;;;;;20.15;67.35;101235.81;5070935;28;45582;-77
2021/06/26 01:13:59;;;;;;;;;14.25;12.75;;;;;20.12;67.06;101234.25;5064511;28;45287;-77
2021/06/26 01:16:25;;;;;;;;;14.75;14.00;;;;;20.09;67.60;101231.91;5071878;28;45324;-77
2021/06/26 01:18:51;;;;;;;;;14.25;13.00;;;;;20.11;67.31;101235.28;5062793;27;45337;-77
2021/06/26 01:21:16;;;;;;;;;15.75;14.00;;;;;20.11;66.93;101232.59;5065420;28;45325;-77
2021/06/26 01:23:46;;;;;;;;;14.75;13.75;;;;;20.08;66.70;101234.75;5059279;28;45429;-77
2021/06/26 01:26:13;;;;;;;;;15.50;14.25;;;;;20.00;66.65;101240.88;5066593;28;45319;-78
2021/06/26 01:28:39;;;;;;;;;14.25;12.00;;;;;19.97;66.88;101233.13;5072491;28;47437;-78
2021/06/26 01:31:05;;;;;;;;;11.25;11.00;;;;;19.95;67.08;101235.09;5069462;28;45450;-77
2021/06/26 01:33:31;;;;;;;;;14.75;11.75;;;;;19.95;67.09;101229.75;5070901;28;45446;-78
2021/06/26 01:35:56;;;;;;;;;13.25;9.00;;;;;19.98;66.68;101236.66;5075360;28;45198;-78
2021/06/26 01:38:22;;;;;;;;;11.75;9.50;;;;;19.96;66.22;101230.59;5060763;28;46857;-78
2021/06/26 01:40:47;;;;;;;;;15.25;14.00;;;;;19.94;66.71;101227.25;5063939;28;45385;-77
2021/06/26 01:43:12;;;;;;;;;13.50;11.75;;;;;19.94;66.51;101217.31;5062886;28;45297;-77
2021/06/26 01:45:38;;;;;;;;;11.75;10.00;;;;;19.89;66.71;101221.47;5072585;28;45413;-78
2021/06/26 01:48:04;;;;;;;;;12.50;11.75;;;;;19.89;66.12;101226.84;5066327;28;46488;-77
2021/06/26 01:50:30;;;;;;;;;13.75;13.00;;;;;19.89;66.32;101221.47;5075222;28;45562;-78
2021/06/26 01:52:55;;;;;;;;;14.25;11.25;;;;;19.87;66.19;101223.47;5063961;28;45326;-77
2021/06/26 01:55:22;;;;;;;;;13.25;11.75;;;;;19.89;66.08;101225.00;5072082;28;45555;-78
2021/06/26 01:57:49;;;;;;;;;15.00;11.00;;;;;19.86;66.22;101225.28;5076570;28;46408;-78
2021/06/26 02:00:15;;;;;;;;;14.50;13.00;;;;;19.81;66.03;101219.56;5075820;27;45409;-77
2021/06/26 02:02:41;;;;;;;;;14.75;13.00;;;;;19.82;65.80;101215.88;5058753;28;45471;-78
2021/06/26 02:05:08;;;;;;;;;16.75;12.50;;;;;19.80;66.69;101212.50;5067172;28;45227;-78
2021/06/26 02:07:34;;;;;;;;;14.75;13.50;;;;;19.83;66.15;101219.41;5059342;28;46289;-78
2021/06/26 02:10:00;;;;;;;;;13.25;12.00;;;;;19.80;65.73;101220.56;5072898;28;45545;-78
2021/06/26 02:12:25;;;;;;;;;11.75;9.50;;;;;19.79;66.61;101218.84;5065423;28;45367;-77
2021/06/26 02:14:53;;;;;;;;;15.00;13.00;;;;;19.80;66.42;101215.19;5071005;28;45386;-78
2021/06/26 02:17:19;;;;;;;;;12.00;10.00;;;;;19.80;67.12;101220.56;5074179;28;46039;-77
2021/06/26 02:19:45;;;;;;;;;15.50;11.00;;;;;19.77;66.96;101221.69;5058895;28;46027;-78
2021/06/26 02:22:10;;;;;;;;;14.50;11.50;;;;;19.76;67.37;101222.69;5061341;28;45595;-78
2021/06/26 02:24:36;;;;;;;;;13.25;11.50;;;;;19.73;67.49;101222.16;5058478;28;45339;-77
2021/06/26 02:27:01;;;;;;;;;12.50;11.50;;;;;19.70;67.10;101223.28;5065426;28;46122;-78
2021/06/26 02:29:27;;;;;;;;;11.00;11.00;;;;;19.69;67.37;101224.28;5078321;28;45522;-78
2021/06/26 02:31:52;;;;;;;;;11.50;10.25;;;;;19.67;67.15;101218.22;5063896;28;45551;-77
2021/06/26 02:34:19;;;;;;;;;11.75;10.25;;;;;19.64;67.04;101223.91;5074974;28;46043;-77
2021/06/26 02:36:44;;;;;;;;;13.25;9.75;;;;;19.63;67.11;101214.19;5067069;28;47070;-76
2021/06/26 02:39:10;;;;;;;;;12.50;11.25;;;;;19.61;67.42;101215.31;5074765;28;45546;-78
2021/06/26 02:41:35;;;;;;;;;13.00;10.25;;;;;19.67;66.93;101214.69;5071555;28;45423;-77
2021/06/26 02:44:00;;;;;;;;;10.50;10.00;;;;;19.70;67.05;101217.94;5074112;28;45383;-77
2021/06/26 02:46:26;;;;;;;;;10.25;10.25;;;;;19.71;66.98;101219.63;5073138;28;48313;-77
2021/06/26 02:48:51;;;;;;;;;10.75;9.75;;;;;19.69;66.98;101215.41;5079613;28;45625;-78
2021/06/26 02:51:17;;;;;;;;;13.50;11.25;;;;;19.66;66.79;101216.56;5068950;28;45577;-78
2021/06/26 02:53:42;;;;;;;;;12.25;11.25;;;;;19.64;66.60;101207.81;5071167;28;45398;-78
2021/06/26 02:56:08;;;;;;;;;12.75;10.00;;;;;19.62;66.83;101208.97;5073426;28;45397;-78
2021/06/26 02:58:33;;;;;;;;;13.25;11.50;;;;;19.62;66.97;101208.97;5074557;28;45412;-78
2021/06/26 03:00:59;;;;;;;;;12.75;11.25;;;;;19.65;67.09;101216.72;5067706;28;45382;-78
2021/06/26 03:03:25;;;;;;;;;13.50;9.75;;;;;19.65;67.08;101211.34;5066365;28;46079;-78
2021/06/26 03:05:50;;;;;;;;;11.75;10.75;;;;;19.64;66.73;101207.81;5072713;28;46290;-78
2021/06/26 03:08:17;;;;;;;;;15.75;12.50;;;;;19.67;66.72;101206.66;5062317;28;45455;-78
2021/06/26 03:10:42;;;;;;;;;14.00;12.50;;;;;19.67;66.79;101203.97;5068796;28;45429;-77
2021/06/26 03:13:08;;;;;;;;;13.00;12.00;;;;;19.63;66.84;101202.63;5068781;28;45405;-77
2021/06/26 03:15:33;;;;;;;;;11.50;11.50;;;;;19.57;67.25;101204.06;5074110;28;47456;-77
2021/06/26 03:17:59;;;;;;;;;14.25;12.50;;;;;19.56;66.90;101196.19;5064577;28;45479;-77
2021/06/26 03:20:24;;;;;;;;;12.75;11.25;;;;;19.51;67.17;101201.13;5076730;28;45416;-77
2021/06/26 03:22:50;;;;;;;;;12.25;11.00;;;;;19.50;67.67;101213.69;5067352;28;45371;-77
2021/06/26 03:25:15;;;;;;;;;13.75;11.25;;;;;19.50;67.72;101210.16;5075313;28;46088;-77
2021/06/26 03:27:41;;;;;;;;;10.75;10.75;;;;;19.48;67.63;101212.16;5066837;28;45547;-77
2021/06/26 03:30:07;;;;;;;;;11.00;11.00;;;;;19.47;67.63;101207.75;5073205;28;45606;-77
2021/06/26 03:32:33;;;;;;;;;13.50;11.50;;;;;19.49;67.57;101208.47;5060515;28;45382;-77
2021/06/26 03:34:59;;;;;;;;;13.50;11.25;;;;;19.52;67.51;101217.06;5072301;28;46121;-77
2021/06/26 03:37:25;;;;;;;;;12.25;11.50;;;;;19.51;67.61;101214.53;5064974;28;45831;-77
2021/06/26 03:39:50;;;;;;;;;13.00;12.75;;;;;19.52;68.17;101205.50;5073763;28;45419;-77
2021/06/26 03:42:16;;;;;;;;;13.00;13.00;;;;;19.40;75.57;101212.84;5072759;28;45596;-77
2021/06/26 03:44:41;;;;;;;;;15.25;13.50;;;;;19.26;77.43;101211.53;5059918;28;45417;-76
2021/06/26 03:47:07;;;;;;;;;14.50;13.50;;;;;19.15;76.35;101217.06;5060621;28;45495;-77
2021/06/26 03:49:37;;;;;;;;;14.50;13.50;;;;;19.05;76.36;101214.41;5068936;28;45688;-77
2021/06/26 03:52:03;;;;;;;;;14.00;11.00;;;;;18.94;75.98;101208.41;5066848;28;45508;-77
2021/06/26 03:54:29;;;;;;;;;16.00;13.50;;;;;18.91;76.45;101217.59;5082685;28;47319;-77
2021/06/26 03:56:55;;;;;;;;;14.00;11.00;;;;;18.88;76.23;101220.53;5077516;28;45820;-77
2021/06/26 03:59:20;;;;;;;;;11.00;11.00;;;;;18.84;76.38;101216.50;5084178;28;45726;-77
2021/06/26 04:01:46;;;;;;;;;13.75;11.00;;;;;18.81;76.55;101221.28;5077666;28;45263;-77
2021/06/26 04:04:11;;;;;;;;;18.00;14.00;;;;;18.77;76.43;101225.22;5081508;28;46175;-77
2021/06/26 04:06:37;;;;;;;;;14.25;13.50;;;;;18.73;77.21;101213.13;5071665;28;45479;-77
2021/06/26 04:09:03;;;;;;;;;16.00;12.75;;;;;18.70;76.85;101214.25;5080585;28;45433;-77
2021/06/26 04:11:29;;;;;;;;;14.50;11.00;;;;;18.69;76.44;101216.09;5075479;28;45418;-77
2021/06/26 04:13:54;;;;;;;;;13.75;13.50;;;;;18.64;77.89;101215.69;5078182;28;45542;-77
2021/06/26 04:16:19;;;;;;;;;17.50;12.75;;;;;18.65;77.20;101214.69;5069709;28;45439;-77
2021/06/26 04:18:45;;;;;;;;;19.25;14.50;;;;;18.61;77.27;101220.47;5075281;28;45340;-78
2021/06/26 04:21:10;;;;;;;;;16.75;14.25;;;;;18.64;78.19;101218.38;5081181;27;45650;-78
2021/06/26 04:23:35;;;;;;;;;17.00;14.50;;;;;18.62;77.99;101223.00;5078786;27;45446;-77
2021/06/26 04:26:01;;;;;;;;;19.25;16.25;;;;;18.58;78.35;101223.41;5072724;28;45438;-77
2021/06/26 04:28:26;;;;;;;;;20.50;17.00;;;;;18.54;79.58;101225.53;5074657;28;45535;-78
2021/06/26 04:30:51;;;;;;;;;14.00;14.00;;;;;18.55;79.89;101229.88;5075479;28;45419;-78
2021/06/26 04:33:17;;;;;;;;;14.00;13.50;;;;;18.56;79.71;101220.03;5072110;28;48093;-77
2021/06/26 04:35:42;;;;;;;;;25.50;16.00;;;;;18.52;81.94;101227.50;5075177;28;45422;-78
2021/06/26 04:38:07;;;;;;;;;17.00;13.50;;;;;18.56;79.05;101230.75;5074072;28;45314;-78
2021/06/26 04:40:33;;;;;;;;;15.50;14.75;;;;;18.55;82.75;101219.19;5066531;28;45693;-78
2021/06/26 04:42:58;;;;;;;;;18.00;16.00;;;;;18.61;80.46;101218.63;5069066;28;45938;-78
2021/06/26 04:45:24;;;;;;;;;20.00;17.50;;;;;18.68;80.15;101227.78;5074900;28;45454;-78
2021/06/26 04:47:49;;;;;;;;;21.50;18.00;;;;;18.68;80.21;101229.59;5070368;28;45410;-78
2021/06/26 04:50:15;;;;;;;;;21.25;19.00;;;;;18.70;80.41;101227.63;5074632;28;45338;-78
2021/06/26 04:52:42;;;;;;;;;22.00;18.25;;;;;18.72;80.21;101224.81;5069903;28;46357;-78
2021/06/26 04:55:08;;;;;;;;;23.00;19.00;;;;;18.76;80.42;101232.41;5075839;28;45452;-78
2021/06/26 04:57:34;;;;;;;;;18.50;17.75;;;;;18.78;80.04;101227.75;5074344;28;45540;-78
2021/06/26 05:00:00;;;;;;;;;15.50;15.25;;;;;18.80;80.75;101224.94;5077995;28;45413;-78
2021/06/26 05:02:25;;;;;;;;;19.00;17.00;;;;;18.79;80.21;101228.59;5072297;28;46178;-78
2021/06/26 05:04:50;;;;;;;;;16.50;13.75;;;;;18.71;79.15;101220.44;5079404;28;45527;-78
2021/06/26 05:07:16;;;;;;;;;18.75;15.50;;;;;18.62;80.08;101220.34;5073272;28;45535;-78
2021/06/26 05:09:41;;;;;;;;;18.00;16.00;;;;;18.63;79.68;101222.03;5071251;28;45420;-78
2021/06/26 05:12:08;;;;;;;;;20.00;13.25;;;;;18.62;79.42;101227.50;5073537;28;45570;-78
2021/06/26 05:14:33;;;;;;;;;16.50;13.00;;;;;18.59;79.28;101220.59;5080762;28;45382;-78
2021/06/26 05:16:58;;;;;;;;;15.50;14.00;;;;;18.60;80.23;101219.63;5071532;28;45284;-78
2021/06/26 05:19:24;;;;;;;;;23.25;17.75;;;;;18.67;79.27;101228.75;5082180;28;45422;-77
2021/06/26 05:21:49;;;;;;;;;15.50;13.75;;;;;18.68;79.53;101227.78;5072068;28;45696;-78
2021/06/26 05:24:15;;;;;;;;;19.00;14.75;;;;;18.70;78.76;101222.28;5076233;28;45321;-78
2021/06/26 05:26:41;;;;;;;;;19.50;13.75;;;;;18.76;79.68;101221.69;5076518;28;45262;-77
2021/06/26 05:29:06;;;;;;;;;15.00;13.25;;;;;18.77;78.43;101230.56;5073777;28;45311;-77
2021/06/26 05:31:32;;;;;;;;;14.50;14.00;;;;;18.78;79.17;101233.09;5072463;28;48536;-77
2021/06/26 05:33:57;;;;;;;;;14.00;11.00;;;;;18.80;79.33;101241.00;5072581;28;45440;-77
2021/06/26 05:36:23;;;;;;;;;16.25;12.75;;;;;18.79;79.00;101237.47;5070746;28;45363;-78
2021/06/26 05:38:48;;;;;;;;;15.50;14.00;;;;;18.81;79.29;101237.31;5075034;27;45290;-78
2021/06/26 05:41:13;;;;;;;;;11.75;11.00;;;;;18.85;78.48;101238.72;5071310;28;46444;-77
2021/06/26 05:43:39;;;;;;;;;11.00;11.00;;;;;18.84;78.77;101231.69;5075664;28;45476;-77
2021/06/26 05:46:04;;;;;;;;;10.75;9.00;;;;;18.91;78.53;101243.50;5067414;28;45416;-77
2021/06/26 05:48:30;;;;;;;;;9.00;9.00;;;;;18.91;77.96;101243.50;5069907;28;45333;-77
2021/06/26 05:50:55;;;;;;;;;9.00;8.75;;;;;18.93;77.83;101252.25;5073418;28;45423;-77
2021/06/26 05:53:21;;;;;;;;;8.00;7.00;;;;;18.88;76.88;101251.81;5065825;28;45370;-77
2021/06/26 05:55:59;;;;;;;;;10.25;7.00;;;;;18.88;77.31;101249.97;5075877;28;45966;-77
2021/06/26 05:58:29;;;;;;;;;9.00;7.75;;;;;18.89;74.39;101246.31;5072219;28;45155;-77
2021/06/26 06:00:56;;;;;;;;;9.75;9.50;;;;;18.90;74.36;101250.69;5071410;27;45452;-77
2021/06/26 06:03:22;;;;;;;;;11.25;9.00;;;;;18.91;74.77;101251.53;5062911;28;45384;-77
2021/06/26 06:05:50;;;;;;;;;10.00;9.00;;;;;18.90;74.45;101255.19;5073568;28;45292;-77
2021/06/26 06:08:16;;;;;;;;;8.50;7.25;;;;;18.99;75.60;101249.81;5060989;28;45275;-77
2021/06/26 06:10:41;;;;;;;;;10.50;8.00;;;;;19.10;73.74;101242.59;5072243;28;46043;-77
2021/06/26 06:13:15;;;;;;;;;7.25;6.75;;;;;19.16;73.23;101242.84;5075256;27;45452;-78
2021/06/26 06:15:42;;;;;;;;;8.00;7.50;;;;;19.21;73.77;101253.13;5077435;28;45256;-77
2021/06/26 06:18:08;;;;;;;;;7.00;7.00;;;;;19.24;73.05;101256.34;5065684;28;45545;-77
2021/06/26 06:20:34;;;;;;;;;8.50;5.75;;;;;19.33;72.28;101252.78;5068755;28;47351;-77
2021/06/26 06:22:59;;;;;;;;;6.00;6.00;;;;;19.39;72.08;101249.50;5072331;28;45406;-77
2021/06/26 06:25:24;;;;;;;;;5.75;5.00;;;;;19.43;71.76;101250.06;5076224;28;45330;-78
2021/06/26 06:27:50;;;;;;;;;8.00;5.00;;;;;19.51;70.53;101246.66;5076816;28;45967;-78
2021/06/26 06:30:15;;;;;;;;;9.00;7.00;;;;;19.53;71.22;101253.56;5073127;28;46838;-78
2021/06/26 06:32:41;;;;;;;;;4.00;4.00;;;;;19.53;70.28;101245.53;5068332;28;45395;-78
2021/06/26 06:35:09;;;;;;;;;5.00;5.00;;;;;19.56;70.51;101241.72;5077470;28;46165;-78
2021/06/26 06:37:35;;;;;;;;;5.75;5.75;;;;;19.58;70.10;101253.94;5069323;28;44668;-78
2021/06/26 06:40:01;;;;;;;;;5.50;4.00;;;;;19.65;70.07;101247.03;5079317;28;48345;-78
2021/06/26 06:42:26;;;;;;;;;6.00;4.50;;;;;19.73;69.74;101241.75;5065115;28;45228;-78
2021/06/26 06:44:51;;;;;;;;;7.00;6.25;;;;;19.80;69.48;101231.28;5074825;28;46254;-77
2021/06/26 06:47:17;;;;;;;;;8.25;4.25;;;;;19.84;67.89;101229.13;5074736;28;45574;-78
2021/06/26 06:49:42;;;;;;;;;8.00;8.00;;;;;19.88;68.67;101236.72;5073131;28;45325;-78
2021/06/26 06:52:08;;;;;;;;;5.00;5.00;;;;;19.91;68.99;101241.78;5067838;28;45406;-78
2021/06/26 06:54:34;;;;;;;;;10.50;8.75;;;;;19.92;68.65;101240.78;5071039;28;45414;-78
2021/06/26 06:56:59;;;;;;;;;7.00;6.75;;;;;19.94;67.88;101244.13;5068779;28;45556;-78
2021/06/26 06:59:25;;;;;;;;;10.50;9.25;;;;;20.02;68.66;101248.75;5070285;28;48151;-77
2021/06/26 07:01:50;;;;;;;;;7.00;7.00;;;;;20.07;68.15;101251.81;5067090;28;46077;-78
2021/06/26 07:04:15;;;;;;;;;6.25;5.75;;;;;20.11;68.04;101246.00;5069165;28;45453;-78
2021/06/26 07:06:41;;;;;;;;;6.50;6.00;;;;;20.11;67.92;101251.38;5064485;28;45428;-77
2021/06/26 07:09:12;;;;;;;;;6.50;5.00;;;;;20.09;66.84;101252.50;5066032;28;46132;-78
2021/06/26 07:11:38;;;;;;;;;7.25;6.00;;;;;20.10;66.97;101260.41;5071657;28;45512;-78
2021/06/26 07:14:03;;;;;;;;;6.25;5.50;;;;;20.20;67.43;101259.50;5069395;28;45461;-77
2021/06/26 07:16:28;;;;;;;;;7.25;6.25;;;;;20.29;66.66;101254.06;5068924;28;45475;-77
2021/06/26 07:18:54;;;;;;;;;6.25;5.25;;;;;20.37;66.11;101266.72;5078605;28;46565;-77
2021/06/26 07:21:19;;;;;;;;;6.00;6.00;;;;;20.42;67.09;101265.25;5065068;28;45408;-77
2021/06/26 07:23:44;;;;;;;;;9.00;6.50;;;;;20.48;66.57;101266.50;5072377;28;45541;-77
2021/06/26 07:26:10;;;;;;;;;9.25;6.25;;;;;20.54;66.56;101260.50;5072092;28;45531;-77
2021/06/26 07:28:36;;;;;;;;;8.00;6.75;;;;;20.60;66.10;101267.91;5075628;28;47147;-79
2021/06/26 07:31:01;;;;;;;;;7.25;7.25;;;;;20.58;65.80;101258.34;5068017;28;45583;-77
2021/06/26 07:33:27;;;;;;;;;7.25;5.50;;;;;20.59;65.70;101260.00;5070576;28;45818;-77
2021/06/26 07:35:52;;;;;;;;;6.50;6.50;;;;;20.52;65.30;101266.00;5063976;28;45536;-78
2021/06/26 07:38:17;;;;;;;;;7.00;6.50;;;;;20.46;66.04;101266.66;5067650;28;45287;-77
2021/06/26 07:40:43;;;;;;;;;8.00;8.00;;;;;20.46;65.33;101272.00;5077532;28;45347;-78
2021/06/26 07:43:08;;;;;;;;;13.00;8.25;;;;;20.45;66.17;101258.75;5063353;28;45336;-77
2021/06/26 07:45:34;;;;;;;;;8.50;8.50;;;;;20.47;65.80;101265.66;5073436;28;45395;-77
2021/06/26 07:47:59;;;;;;;;;9.50;8.25;;;;;20.49;66.05;101265.47;5064169;28;47058;-78
2021/06/26 07:50:24;;;;;;;;;11.25;9.00;;;;;20.49;65.95;101269.00;5076818;28;45406;-77
2021/06/26 07:52:53;;;;;;;;;7.50;7.50;;;;;20.45;66.50;101264.09;5072086;28;45357;-78
2021/06/26 07:55:19;;;;;;;;;8.50;8.50;;;;;20.49;66.39;101269.00;5071294;28;45500;-77
2021/06/26 07:57:44;;;;;;;;;9.50;9.25;;;;;20.53;66.28;101261.50;5082560;27;45325;-78
2021/06/26 08:00:10;;;;;;;;;7.75;7.00;;;;;20.49;66.54;101257.41;5082543;28;45811;-77
2021/06/26 08:02:35;;;;;;;;;9.00;8.25;;;;;20.44;67.38;101260.59;5066466;28;45468;-78
2021/06/26 08:05:01;;;;;;;;;11.00;11.00;;;;;20.42;66.86;101257.19;5070435;28;45370;-77
2021/06/26 08:07:26;;;;;;;;;7.50;7.50;;;;;20.48;67.24;101248.56;5076101;28;45485;-77
2021/06/26 08:09:51;;;;;;;;;10.25;10.00;;;;;20.53;66.48;101254.28;5076328;28;46065;-77
2021/06/26 08:12:17;;;;;;;;;10.25;9.00;;;;;20.51;67.69;101247.38;5083662;28;44852;-77
2021/06/26 08:14:44;;;;;;;;;9.50;9.50;;;;;20.39;66.92;101248.63;5069726;28;45231;-78
2021/06/26 08:17:14;;;;;;;;;10.75;9.50;;;;;20.34;68.19;101249.09;5064750;28;46222;-77
2021/06/26 08:19:39;;;;;;;;;8.00;8.00;;;;;20.41;67.37;101246.63;5078943;28;45630;-77
2021/06/26 08:22:05;;;;;;;;;10.50;9.00;;;;;20.42;66.92;101251.00;5074492;28;44736;-78
2021/06/26 08:24:31;;;;;;;;;10.25;8.50;;;;;20.40;67.06;101244.94;5079640;28;45461;-77
2021/06/26 08:26:57;;;;;;;;;9.75;8.75;;;;;20.47;67.17;101241.50;5073463;28;46482;-77
2021/06/26 08:29:23;;;;;;;;;9.50;8.25;;;;;20.56;66.83;101242.41;5080761;28;45219;-78
2021/06/26 08:31:48;;;;;;;;;13.50;12.00;;;;;20.67;67.55;101235.94;5075427;28;45229;-77
2021/06/26 08:34:13;;;;;;;;;13.25;11.75;;;;;20.87;66.10;101232.03;5063677;28;45150;-77
2021/06/26 08:36:39;;;;;;;;;12.00;10.75;;;;;21.01;66.39;101239.53;5071197;28;45486;-78
2021/06/26 08:39:04;;;;;;;;;10.00;10.00;;;;;21.08;65.74;101250.47;5076075;28;45411;-78
2021/06/26 08:41:38;;;;;;;;;13.50;9.50;;;;;21.08;65.78;101243.25;5077626;28;44871;-78
2021/06/26 08:44:05;;;;;;;;;11.50;10.00;;;;;21.13;65.35;101251.66;5073148;28;45194;-78
2021/06/26 08:46:32;;;;;;;;;12.00;11.50;;;;;21.13;65.45;101248.13;5074006;28;45406;-78
2021/06/26 08:48:57;;;;;;;;;14.00;8.50;;;;;21.18;65.47;101246.69;5074449;28;45569;-79
2021/06/26 08:51:23;;;;;;;;;9.50;8.50;;;;;21.19;65.09;101260.97;5073455;28;45470;-78
2021/06/26 08:53:48;;;;;;;;;12.50;10.00;;;;;21.19;64.96;101259.13;5069712;28;45508;-78
2021/06/26 08:56:14;;;;;;;;;8.50;8.50;;;;;21.14;64.47;101257.88;5073103;28;48232;-79
2021/06/26 08:58:40;;;;;;;;;11.50;10.00;;;;;21.14;64.91;101264.09;5069660;28;45397;-78
2021/06/26 09:01:06;;;;;;;;;14.75;12.25;;;;;21.11;63.85;101255.53;5075098;28;45370;-77
2021/06/26 09:03:35;;;;;;;;;7.50;7.50;;;;;21.26;64.19;101256.63;5064342;28;45327;-78
2021/06/26 09:06:06;;;;;;;;;10.25;8.00;;;;;21.73;64.25;101240.88;5077759;28;46214;-78
2021/06/26 09:08:32;;;;;;;;;13.00;8.25;;;;;23.05;63.48;101245.16;5076439;28;45500;-78
2021/06/26 09:10:57;;;;;;;;;11.75;9.50;;;;;23.72;59.74;101237.50;5077957;28;45551;-78
2021/06/26 09:13:25;;;;;;;;;13.00;7.75;;;;;23.73;59.63;101243.75;5076617;28;45523;-77
2021/06/26 09:16:05;;;;;;;;;9.75;9.75;;;;;23.60;59.18;101241.59;5074467;28;48194;-76
2021/06/26 09:18:42;;;;;;;;;13.50;10.75;;;;;23.64;59.19;101231.31;5076379;28;45801;-76
2021/06/26 09:24:07;;;;;;;;;8.50;8.00;;;;;23.86;56.42;101239.44;5076180;28;45388;-77
2021/06/26 09:26:37;;;;;;;;;12.25;9.75;;;;;24.02;57.32;101240.38;5067909;28;45472;-77
2021/06/26 09:29:12;;;;;;;;;8.50;5.00;;;;;24.28;56.37;101231.94;5077080;28;45545;-76
2021/06/26 09:31:54;;;;;;;;;6.00;6.00;;;;;24.52;55.26;101226.31;5067236;28;45327;-77
2021/06/26 09:34:23;;;;;;;;;7.50;5.50;;;;;24.90;54.13;101221.72;5076197;28;45506;-77
2021/06/26 09:37:00;;;;;;;;;6.00;5.00;;;;;25.36;51.81;101222.41;5075102;28;47484;-77
2021/06/26 09:39:40;;;;;;;;;5.50;4.75;;;;;26.06;50.95;101225.31;5082371;28;45403;-77
2021/06/26 09:42:20;;;;;;;;;8.50;6.75;;;;;27.66;50.23;101234.44;5071569;28;45448;-77
2021/06/26 09:45:00;;;;;;;;;9.50;7.00;;;;;31.26;50.99;101226.25;5078209;28;45177;-77
2021/06/26 09:47:31;;;;;;;;;7.50;7.00;;;;;33.15;43.43;101222.69;5071080;28;45688;-77
2021/06/26 09:50:15;;;;;;;;;9.00;6.75;;;;;33.18;39.85;101226.88;5077415;28;45548;-77
2021/06/26 09:52:52;;;;;;;;;6.50;6.50;;;;;32.65;38.13;101231.41;5072978;28;45286;-77
2021/06/26 09:55:20;;;;;;;;;7.50;7.50;;;;;31.62;38.50;101244.50;5063326;28;45583;-77
2021/06/26 09:57:47;;;;;;;;;9.25;7.25;;;;;30.67;39.00;101249.50;5073057;27;46140;-77
2021/06/26 10:00:16;;;;;;;;;12.00;9.00;;;;;29.69;38.05;101248.19;5076937;28;45315;-78
2021/06/26 10:02:44;;;;;;;;;6.25;6.00;;;;;28.73;38.32;101260.75;5080070;28;45278;-78
2021/06/26 10:05:11;;;;;;;;;6.75;6.00;;;;;27.95;39.39;101259.59;5086242;28;45461;-78
2021/06/26 10:07:39;;;;;;;;;5.00;5.00;;;;;27.26;42.34;101263.22;5076864;28;47732;-78
2021/06/26 10:10:06;;;;;;;;;11.00;7.75;;;;;26.82;42.78;101258.13;5076969;27;45231;-79
2021/06/26 10:12:34;;;;;;;;;10.25;10.00;;;;;26.43;42.73;101255.91;5075544;28;45348;-78
2021/06/26 10:15:00;;;;;;;;;12.75;8.00;;;;;26.05;44.07;101255.28;5077882;28;45586;-78
2021/06/26 10:17:26;;;;;;;;;6.50;6.50;;;;;25.87;44.69;101258.44;5073432;28;47477;-78
2021/06/26 10:19:52;;;;;;;;;8.00;8.00;;;;;25.82;45.28;101252.75;5063097;28;45797;-78
2021/06/26 10:22:17;;;;;;;;;10.00;9.25;;;;;25.80;46.18;101256.69;5069738;28;45404;-78
2021/06/26 10:24:46;;;;;;;;;10.50;7.50;;;;;25.93;46.67;101244.16;5077421;28;45338;-78
2021/06/26 10:27:19;;;;;;;;;11.50;9.25;;;;;26.11;46.23;101251.00;5068658;28;45181;-78
2021/06/26 10:29:44;;;;;;;;;9.50;9.50;;;;;26.20;46.33;101247.97;5075076;28;45444;-79
2021/06/26 10:32:12;;;;;;;;;12.00;12.00;;;;;26.25;44.69;101247.38;5070977;28;45392;-78
2021/06/26 10:34:44;;;;;;;;;9.75;9.75;;;;;26.26;45.25;101251.75;5073925;28;45505;-78
2021/06/26 10:37:18;;;;;;;;;15.00;10.50;;;;;26.31;45.60;101242.03;5070269;28;45287;-78
2021/06/26 10:39:45;;;;;;;;;12.50;10.25;;;;;26.40;45.56;101243.59;5067270;28;45332;-78
2021/06/26 10:42:19;;;;;;;;;8.75;8.25;;;;;26.52;44.84;101243.06;5072501;28;45272;-78
2021/06/26 10:44:54;;;;;;;;;8.50;6.75;;;;;26.67;44.02;101247.38;5065015;28;45480;-78
2021/06/26 10:47:41;;;;;;;;;8.00;7.00;;;;;26.63;43.84;101251.50;5070257;28;48141;-78
2021/06/26 10:50:11;;;;;;;;;6.00;6.00;;;;;26.51;43.83;101239.50;5071084;28;45320;-78
2021/06/26 10:52:49;;;;;;;;;8.75;8.00;;;;;26.39;43.85;101239.22;5061690;28;45410;-79
2021/06/26 10:55:38;;;;;;;;;13.25;8.00;;;;;26.31;43.75;101235.81;5075387;28;45461;-78
2021/06/26 10:58:05;;;;;;;;;9.00;8.00;;;;;26.22;44.50;101240.47;5073003;28;45406;-77
2021/06/26 11:00:33;;;;;;;;;13.25;10.50;;;;;26.19;44.52;101240.03;5078193;28;45481;-78
2021/06/26 11:03:00;;;;;;;;;13.00;10.50;;;;;26.02;44.51;101243.00;5073837;28;45431;-79
2021/06/26 11:05:31;;;;;;;;;15.00;13.50;;;;;25.88;44.57;101238.47;5080072;28;45382;-79
2021/06/26 11:07:57;;;;;;;;;13.50;10.00;;;;;25.79;45.13;101236.91;5066527;28;47430;-79
2021/06/26 11:10:22;;;;;;;;;15.25;10.50;;;;;25.74;45.55;101239.34;5075863;28;45442;-79
2021/06/26 11:12:49;;;;;;;;;10.00;9.50;;;;;25.71;45.70;101239.72;5074486;28;45436;-79
2021/06/26 11:15:23;;;;;;;;;14.75;13.00;;;;;25.71;45.67;101226.19;5075155;28;45372;-79
2021/06/26 11:17:49;;;;;;;;;18.00;14.00;;;;;25.79;45.60;101219.81;5065040;28;47450;-79